createdAt,value
2023-02-13T00:00:38.801Z,36.25
2023-02-13T00:03:05.557Z,35.53
2023-02-13T00:05:32.345Z,33.83
2023-02-13T00:08:00.714Z,35.90
2023-02-13T00:10:27.899Z,34.47
2023-02-13T00:12:54.499Z,33.50
2023-02-13T00:15:21.222Z,39.17
2023-02-13T00:17:47.840Z,32.50
2023-02-13T00:20:14.921Z,34.45
2023-02-13T00:22:41.917Z,33.50
2023-02-13T00:25:09.151Z,37.65
2023-02-13T00:27:36.117Z,33.47
2023-02-13T00:30:03.622Z,36.20
2023-02-13T00:32:31.219Z,35.97
2023-02-13T00:34:58.445Z,36.30
2023-02-13T00:37:25.386Z,33.95
2023-02-13T00:39:52.497Z,32.45
2023-02-13T00:42:18.961Z,33.05
2023-02-13T00:44:45.704Z,34.72
2023-02-13T00:47:14.922Z,32.60
2023-02-13T00:49:42.036Z,31.80
2023-02-13T00:52:08.694Z,31.95
2023-02-13T00:54:37.368Z,35.85
2023-02-13T00:57:06.180Z,36.95
2023-02-13T00:59:33.817Z,32.05
2023-02-13T01:02:00.461Z,32.83
2023-02-13T01:04:27.212Z,36.78
2023-02-13T01:06:56.967Z,35.15
2023-02-13T01:09:24.624Z,37.00
2023-02-13T01:11:51.107Z,35.35
2023-02-13T01:14:17.657Z,32.45
2023-02-13T01:16:44.629Z,34.30
2023-02-13T01:19:11.428Z,36.25
2023-02-13T01:21:38.073Z,34.15
2023-02-13T01:24:05.777Z,38.00
2023-02-13T01:26:32.647Z,33.65
2023-02-13T01:28:59.377Z,32.85
2023-02-13T01:31:26.373Z,33.47
2023-02-13T01:33:53.503Z,33.50
2023-02-13T01:36:22.220Z,33.65
2023-02-13T01:38:49.064Z,37.15
2023-02-13T01:41:15.924Z,39.63
2023-02-13T01:43:44.022Z,35.75
2023-02-13T01:46:11.802Z,36.20
2023-02-13T01:48:38.553Z,35.88
2023-02-13T01:51:08.031Z,35.72
2023-02-13T01:53:45.494Z,36.45
2023-02-13T01:56:19.658Z,35.95
2023-02-13T01:58:48.535Z,36.87
2023-02-13T02:01:15.437Z,34.67
2023-02-13T02:03:48.573Z,36.78
2023-02-13T02:06:26.744Z,36.25
2023-02-13T02:08:54.318Z,34.65
2023-02-13T02:11:25.948Z,35.67
2023-02-13T02:13:53.219Z,34.67
2023-02-13T02:16:32.520Z,35.03
2023-02-13T02:19:01.650Z,40.05
2023-02-13T02:21:43.708Z,34.75
2023-02-13T02:24:16.433Z,34.40
2023-02-13T02:26:42.987Z,34.60
2023-02-13T02:29:15.336Z,35.60
2023-02-13T02:31:58.652Z,34.00
2023-02-13T02:34:45.732Z,39.47
2023-02-13T02:37:24.769Z,35.65
2023-02-13T02:40:10.593Z,36.53
2023-02-13T02:42:56.382Z,36.63
2023-02-13T02:45:22.907Z,36.08
2023-02-13T02:48:15.280Z,34.40
2023-02-13T02:50:53.745Z,40.55
2023-02-13T02:53:29.827Z,36.35
2023-02-13T02:56:05.535Z,36.80
2023-02-13T02:58:55.738Z,33.40
2023-02-13T03:01:47.024Z,37.00
2023-02-13T03:04:56.005Z,35.03
2023-02-13T03:07:22.595Z,38.47
2023-02-13T03:10:11.809Z,36.00
2023-02-13T03:13:00.112Z,37.42
2023-02-13T03:15:26.989Z,38.72
2023-02-13T03:18:12.802Z,37.03
2023-02-13T03:21:06.988Z,36.38
2023-02-13T03:23:33.664Z,35.10
2023-02-13T03:26:10.273Z,35.50
2023-02-13T03:28:58.779Z,37.10
2023-02-13T03:31:31.251Z,36.75
2023-02-13T03:34:01.350Z,36.22
2023-02-13T03:36:49.894Z,38.38
2023-02-13T03:39:19.617Z,36.38
2023-02-13T03:41:50.726Z,34.28
2023-02-13T03:44:36.046Z,35.05
2023-02-13T03:49:57.966Z,36.53
2023-02-13T03:52:31.795Z,37.58
2023-02-13T03:55:25.344Z,37.40
2023-02-13T03:58:13.173Z,42.15
2023-02-13T04:00:42.885Z,41.53
2023-02-13T04:03:27.449Z,40.03
2023-02-13T04:05:58.544Z,37.97
2023-02-13T04:08:25.119Z,39.90
2023-02-13T04:10:58.311Z,39.63
2023-02-13T04:13:28.183Z,40.35
2023-02-13T04:15:57.475Z,42.03
2023-02-13T04:18:27.262Z,39.78
2023-02-13T04:20:53.954Z,37.65
2023-02-13T04:23:20.702Z,37.45
2023-02-13T04:25:50.136Z,37.03
2023-02-13T04:28:17.029Z,39.97
2023-02-13T04:30:44.424Z,38.72
2023-02-13T04:33:11.190Z,40.63
2023-02-13T04:35:37.854Z,36.15
2023-02-13T04:38:04.808Z,39.03
2023-02-13T04:40:32.239Z,36.08
2023-02-13T04:42:59.224Z,37.90
2023-02-13T04:45:26.095Z,37.13
2023-02-13T04:47:53.612Z,37.95
2023-02-13T04:50:20.705Z,40.53
2023-02-13T04:52:47.789Z,41.03
2023-02-13T04:55:16.065Z,38.10
2023-02-13T04:57:42.713Z,43.10
2023-02-13T05:00:09.878Z,37.75
2023-02-13T05:02:38.735Z,40.92
2023-02-13T05:05:06.414Z,41.25
2023-02-13T05:07:33.214Z,44.88
2023-02-13T05:09:59.743Z,42.08
2023-02-13T05:12:26.485Z,41.10
2023-02-13T05:14:53.281Z,42.50
2023-02-13T05:17:19.892Z,40.28
2023-02-13T05:19:46.712Z,45.03
2023-02-13T05:22:31.946Z,39.38
2023-02-13T05:24:58.740Z,41.78
2023-02-13T05:27:25.492Z,41.92
2023-02-13T05:29:52.091Z,41.55
2023-02-13T05:32:19.058Z,45.85
2023-02-13T05:34:46.195Z,43.38
2023-02-13T05:37:12.772Z,42.72
2023-02-13T05:39:39.406Z,41.50
2023-02-13T05:42:06.029Z,43.38
2023-02-13T05:44:33.331Z,41.25
2023-02-13T05:47:00.070Z,44.55
2023-02-13T05:49:26.874Z,41.05
2023-02-13T05:51:53.426Z,44.67
2023-02-13T05:54:20.168Z,41.78
2023-02-13T05:56:47.132Z,45.35
2023-02-13T05:59:14.213Z,46.80
2023-02-13T06:01:41.014Z,39.45
2023-02-13T06:04:07.951Z,45.85
2023-02-13T06:06:34.565Z,46.05
2023-02-13T06:09:01.244Z,45.25
2023-02-13T06:11:27.964Z,44.05
2023-02-13T06:13:54.744Z,42.75
2023-02-13T06:16:22.727Z,40.60
2023-02-13T06:18:49.452Z,42.50
2023-02-13T06:21:16.169Z,40.78
2023-02-13T06:23:42.829Z,42.45
2023-02-13T06:26:11.109Z,45.83
2023-02-13T06:28:38.034Z,42.83
2023-02-13T06:31:04.950Z,45.20
2023-02-13T06:33:31.982Z,48.17
2023-02-13T06:35:58.666Z,44.85
2023-02-13T06:38:25.471Z,47.45
2023-02-13T06:40:59.524Z,46.17
2023-02-13T06:43:29.327Z,48.95
2023-02-13T06:45:56.382Z,55.47
2023-02-13T06:48:23.300Z,55.42
2023-02-13T06:50:52.370Z,52.50
2023-02-13T06:53:24.782Z,55.15
2023-02-13T06:55:53.172Z,56.88
2023-02-13T06:58:20.475Z,54.55
2023-02-13T07:00:47.502Z,51.17
2023-02-13T07:03:14.335Z,55.95
2023-02-13T07:05:42.068Z,57.45
2023-02-13T07:08:09.498Z,59.38
2023-02-13T07:10:39.612Z,54.22
2023-02-13T07:13:06.594Z,54.75
2023-02-13T07:15:34.910Z,59.05
2023-02-13T07:18:01.658Z,58.00
2023-02-13T07:20:28.596Z,56.40
2023-02-13T07:22:59.196Z,53.97
2023-02-13T07:25:26.566Z,57.03
2023-02-13T07:27:53.297Z,60.25
2023-02-13T07:30:19.920Z,60.17
2023-02-13T07:32:46.405Z,57.72
2023-02-13T07:35:13.288Z,62.85
2023-02-13T07:37:40.040Z,53.17
2023-02-13T07:40:08.723Z,56.45
2023-02-13T07:42:36.317Z,56.83
2023-02-13T07:45:05.805Z,58.95
2023-02-13T07:47:33.509Z,55.30
2023-02-13T07:50:00.405Z,60.42
2023-02-13T07:52:27.323Z,56.35
2023-02-13T07:54:54.431Z,57.22
2023-02-13T07:57:21.266Z,60.88
2023-02-13T07:59:48.061Z,56.22
2023-02-13T08:02:15.355Z,58.45
2023-02-13T08:04:46.520Z,59.10
2023-02-13T08:07:14.815Z,55.38
2023-02-13T08:10:02.287Z,56.08
2023-02-13T08:12:29.182Z,55.15
2023-02-13T08:14:55.676Z,56.30
2023-02-13T08:17:22.710Z,55.65
2023-02-13T08:19:50.033Z,60.08
2023-02-13T08:22:17.106Z,56.03
2023-02-13T08:24:43.732Z,59.88
2023-02-13T08:27:13.735Z,60.00
2023-02-13T08:29:40.554Z,56.72
2023-02-13T08:32:07.540Z,58.10
2023-02-13T08:34:34.744Z,60.17
2023-02-13T08:37:01.827Z,57.05
2023-02-13T08:39:28.453Z,53.75
2023-02-13T08:41:55.209Z,55.53
2023-02-13T08:44:22.161Z,57.58
2023-02-13T08:46:48.908Z,58.35
2023-02-13T08:49:16.037Z,57.13
2023-02-13T08:51:43.065Z,59.03
2023-02-13T08:54:09.868Z,58.33
2023-02-13T08:56:36.389Z,62.67
2023-02-13T08:59:15.984Z,59.13
2023-02-13T09:01:42.867Z,61.88
2023-02-13T09:04:09.935Z,56.97
2023-02-13T09:06:37.010Z,61.65
2023-02-13T09:09:05.310Z,58.33
2023-02-13T09:11:32.078Z,59.22
2023-02-13T09:13:59.405Z,60.80
2023-02-13T09:16:26.311Z,59.90
2023-02-13T09:18:52.893Z,58.53
2023-02-13T09:21:21.237Z,51.72
2023-02-13T09:23:48.149Z,57.13
2023-02-13T09:26:19.677Z,55.72
2023-02-13T09:28:47.289Z,55.67
2023-02-13T09:31:19.201Z,52.28
2023-02-13T09:33:46.936Z,55.38
2023-02-13T09:36:15.420Z,59.80
2023-02-13T09:38:46.070Z,57.65
2023-02-13T09:41:29.442Z,54.65
2023-02-13T09:44:35.271Z,58.03
2023-02-13T09:47:08.314Z,57.72
2023-02-13T09:49:37.506Z,58.15
2023-02-13T09:52:04.215Z,50.38
2023-02-13T09:54:32.354Z,46.28
2023-02-13T09:57:05.106Z,47.83
2023-02-13T09:59:51.189Z,45.03
2023-02-13T10:02:36.948Z,44.60
2023-02-13T10:05:22.881Z,40.63
2023-02-13T10:08:08.356Z,38.53
2023-02-13T10:10:44.216Z,37.33
2023-02-13T10:13:11.740Z,36.88
2023-02-13T10:15:43.404Z,35.30
2023-02-13T10:18:13.399Z,35.08
2023-02-13T10:20:43.559Z,36.30
2023-02-13T10:23:13.477Z,41.40
2023-02-13T10:25:46.911Z,36.92
2023-02-13T10:28:19.310Z,33.42
2023-02-13T10:30:52.691Z,30.02
2023-02-13T10:33:30.847Z,26.52
2023-02-13T10:36:03.885Z,27.23
2023-02-13T10:38:32.068Z,27.83
2023-02-13T10:40:59.312Z,28.25
2023-02-13T10:43:28.950Z,28.60
2023-02-13T10:46:18.104Z,28.73
2023-02-13T10:49:08.445Z,28.75
2023-02-13T10:51:38.071Z,25.08
2023-02-13T10:54:16.839Z,26.02
2023-02-13T10:56:48.643Z,26.38
2023-02-13T10:59:37.827Z,27.10
2023-02-13T11:02:21.846Z,29.38
2023-02-13T11:04:52.777Z,28.00
2023-02-13T11:07:21.848Z,29.75
2023-02-13T11:09:49.685Z,27.80
2023-02-13T11:12:27.753Z,26.83
2023-02-13T11:14:58.767Z,26.48
2023-02-13T11:17:27.225Z,28.05
2023-02-13T11:19:58.087Z,28.20
2023-02-13T11:22:35.392Z,27.67
2023-02-13T11:25:08.072Z,28.17
2023-02-13T11:27:37.400Z,29.23
2023-02-13T11:30:27.260Z,29.55
2023-02-13T11:33:01.205Z,30.38
2023-02-13T11:35:32.774Z,29.43
2023-02-13T11:38:21.047Z,29.25
2023-02-13T11:40:52.848Z,27.77
2023-02-13T11:43:37.647Z,25.90
2023-02-13T11:46:07.217Z,26.58
2023-02-13T11:48:40.542Z,27.77
2023-02-13T11:51:07.215Z,29.33
2023-02-13T11:53:38.356Z,27.73
2023-02-13T11:56:08.065Z,27.90
2023-02-13T11:58:35.288Z,28.38
2023-02-13T12:01:20.201Z,27.00
2023-02-13T12:04:06.452Z,25.65
2023-02-13T12:06:40.505Z,29.17
2023-02-13T12:09:15.671Z,25.52
2023-02-13T12:11:52.322Z,26.92
2023-02-13T12:14:23.610Z,29.00
2023-02-13T12:16:51.532Z,23.88
2023-02-13T12:19:23.352Z,24.48
2023-02-13T12:21:50.145Z,25.35
2023-02-13T12:24:19.682Z,24.42
2023-02-13T12:26:52.336Z,23.65
2023-02-13T12:29:38.483Z,23.80
2023-02-13T12:32:13.062Z,24.67
2023-02-13T12:34:52.025Z,26.38
2023-02-13T12:37:32.429Z,25.25
2023-02-13T12:40:13.760Z,27.02
2023-02-13T12:42:40.336Z,27.08
2023-02-13T12:45:09.708Z,27.40
2023-02-13T12:47:46.110Z,25.77
2023-02-13T12:50:23.323Z,26.42
2023-02-13T12:52:52.950Z,27.05
2023-02-13T12:55:19.457Z,26.60
2023-02-13T12:58:01.292Z,26.17
2023-02-13T13:00:30.670Z,25.77
2023-02-13T13:03:23.977Z,27.08
2023-02-13T13:06:08.959Z,26.13
2023-02-13T13:08:44.012Z,29.17
2023-02-13T13:11:29.532Z,26.83
2023-02-13T13:14:02.004Z,26.50
2023-02-13T13:16:29.028Z,25.33
2023-02-13T13:19:07.726Z,26.52
2023-02-13T13:22:07.090Z,28.15
2023-02-13T13:24:46.106Z,29.08
2023-02-13T13:27:20.604Z,28.05
2023-02-13T13:29:52.084Z,34.28
2023-02-13T13:32:20.693Z,35.00
2023-02-13T13:34:47.601Z,28.58
2023-02-13T13:37:25.103Z,26.05
2023-02-13T13:40:04.933Z,23.92
2023-02-13T13:42:39.428Z,23.02
2023-02-13T13:45:11.580Z,23.67
2023-02-13T13:47:56.515Z,24.10
2023-02-13T13:50:24.938Z,21.98
2023-02-13T13:53:07.050Z,24.17
2023-02-13T13:56:01.505Z,22.67
2023-02-13T13:58:38.747Z,24.23
2023-02-13T14:01:23.768Z,23.50
2023-02-13T14:03:52.782Z,22.88
2023-02-13T14:06:21.792Z,22.55
2023-02-13T14:08:49.076Z,19.90
2023-02-13T14:11:27.713Z,22.42
2023-02-13T14:13:54.482Z,20.95
2023-02-13T14:16:37.933Z,24.17
2023-02-13T14:19:06.094Z,27.77
2023-02-13T14:21:32.821Z,21.65
2023-02-13T14:24:04.065Z,24.45
2023-02-13T14:26:33.137Z,23.98
2023-02-13T14:29:08.930Z,22.38
2023-02-13T14:31:39.747Z,25.27
2023-02-13T14:34:08.657Z,22.15
2023-02-13T14:36:36.846Z,21.92
2023-02-13T14:39:08.828Z,23.88
2023-02-13T14:41:56.807Z,21.20
2023-02-13T14:44:29.361Z,23.50
2023-02-13T14:46:57.094Z,21.98
2023-02-13T14:49:26.116Z,21.33
2023-02-13T14:51:57.363Z,24.75
2023-02-13T14:54:33.495Z,22.50
2023-02-13T14:57:06.125Z,23.50
2023-02-13T14:59:37.361Z,22.10
2023-02-13T15:02:09.701Z,23.30
2023-02-13T15:04:42.136Z,21.45
2023-02-13T15:07:18.307Z,22.27
2023-02-13T15:09:53.355Z,25.65
2023-02-13T15:12:27.832Z,20.80
2023-02-13T15:14:54.678Z,22.38
2023-02-13T15:17:23.040Z,24.38
2023-02-13T15:19:51.616Z,22.10
2023-02-13T15:22:44.405Z,22.67
2023-02-13T15:25:26.929Z,24.15
2023-02-13T15:27:56.640Z,21.25
2023-02-13T15:30:24.588Z,20.65
2023-02-13T15:32:58.806Z,22.23
2023-02-13T15:35:33.279Z,22.90
2023-02-13T15:38:00.733Z,22.38
2023-02-13T15:40:33.024Z,22.70
2023-02-13T15:43:00.690Z,22.55
2023-02-13T15:45:28.942Z,23.85
2023-02-13T15:47:56.798Z,25.27
2023-02-13T15:50:34.734Z,22.73
2023-02-13T15:53:03.379Z,20.70
2023-02-13T15:55:31.793Z,21.92
2023-02-13T15:58:00.041Z,21.05
2023-02-13T16:00:31.692Z,21.65
2023-02-13T16:02:59.580Z,21.15
2023-02-13T16:05:39.578Z,21.95
2023-02-13T16:08:22.376Z,24.23
2023-02-13T16:10:48.950Z,23.58
2023-02-13T16:13:17.909Z,22.45
2023-02-13T16:15:44.597Z,22.33
2023-02-13T16:18:21.044Z,21.40
2023-02-13T16:20:53.477Z,25.52
2023-02-13T16:23:20.998Z,22.13
2023-02-13T16:25:48.499Z,21.63
2023-02-13T16:28:15.192Z,23.42
2023-02-13T16:30:46.056Z,20.25
2023-02-13T16:33:15.691Z,22.55
2023-02-13T16:35:45.949Z,22.85
2023-02-13T16:38:42.683Z,24.15
2023-02-13T16:41:22.159Z,23.17
2023-02-13T16:43:48.981Z,20.90
2023-02-13T16:46:15.673Z,23.30
2023-02-13T16:48:44.310Z,24.20
2023-02-13T16:51:11.067Z,24.90
2023-02-13T16:53:38.446Z,22.83
2023-02-13T16:56:09.146Z,24.92
2023-02-13T16:58:35.888Z,23.92
2023-02-13T17:01:04.354Z,23.80
2023-02-13T17:03:32.445Z,23.88
2023-02-13T17:06:03.274Z,25.58
2023-02-13T17:08:31.174Z,24.27
2023-02-13T17:11:05.464Z,23.38
2023-02-13T17:13:33.256Z,24.75
2023-02-13T17:16:00.183Z,23.92
2023-02-13T17:18:27.605Z,23.70
2023-02-13T17:20:54.526Z,24.63
2023-02-13T17:23:22.962Z,23.75
2023-02-13T17:25:51.411Z,23.60
2023-02-13T17:28:23.188Z,21.27
2023-02-13T17:30:51.175Z,23.42
2023-02-13T17:33:20.390Z,21.35
2023-02-13T17:35:47.890Z,23.38
2023-02-13T17:38:14.662Z,25.95
2023-02-13T17:40:41.995Z,27.40
2023-02-13T17:43:09.870Z,23.52
2023-02-13T17:45:37.823Z,22.67
2023-02-13T17:48:05.208Z,22.05
2023-02-13T17:50:32.684Z,22.38
2023-02-13T17:53:02.049Z,24.40
2023-02-13T17:55:29.649Z,23.08
2023-02-13T17:57:57.853Z,23.23
2023-02-13T18:00:25.599Z,29.33
2023-02-13T18:02:52.369Z,25.40
2023-02-13T18:05:19.876Z,24.92
2023-02-13T18:07:47.204Z,24.67
2023-02-13T18:10:16.106Z,22.38
2023-02-13T18:12:43.241Z,25.00
2023-02-13T18:15:10.208Z,26.55
2023-02-13T18:17:37.106Z,26.27
2023-02-13T18:20:04.920Z,25.25
2023-02-13T18:22:31.438Z,23.80
2023-02-13T18:24:58.149Z,26.23
2023-02-13T18:27:26.479Z,27.20
2023-02-13T18:29:53.930Z,24.50
2023-02-13T18:32:20.755Z,25.27
2023-02-13T18:34:51.962Z,25.15
2023-02-13T18:37:19.074Z,26.58
2023-02-13T18:39:50.125Z,24.70
2023-02-13T18:42:18.768Z,22.38
2023-02-13T18:44:45.558Z,24.10
2023-02-13T18:47:12.704Z,24.75
2023-02-13T18:49:39.430Z,23.48
2023-02-13T18:52:09.315Z,26.27
2023-02-13T18:54:36.244Z,22.98
2023-02-13T18:57:02.727Z,26.20
2023-02-13T18:59:29.857Z,25.52
2023-02-13T19:01:56.774Z,24.92
2023-02-13T19:04:23.614Z,25.92
2023-02-13T19:06:50.317Z,23.75
2023-02-13T19:09:17.181Z,26.88
2023-02-13T19:11:44.517Z,24.70
2023-02-13T19:14:12.845Z,22.58
2023-02-13T19:16:40.627Z,23.42
2023-02-13T19:19:07.950Z,24.42
2023-02-13T19:21:35.893Z,24.85
2023-02-13T19:24:03.917Z,28.35
2023-02-13T19:26:31.060Z,27.17
2023-02-13T19:29:00.659Z,26.23
2023-02-13T19:31:28.652Z,27.80
2023-02-13T19:33:55.375Z,30.13
2023-02-13T19:36:23.386Z,23.35
2023-02-13T19:38:54.080Z,24.83
2023-02-13T19:44:01.974Z,29.90
2023-02-13T19:46:30.623Z,25.90
2023-02-13T19:48:58.679Z,29.13
2023-02-13T19:51:27.816Z,26.85
2023-02-13T19:53:58.157Z,29.60
2023-02-13T19:56:27.181Z,27.95
2023-02-13T19:58:53.854Z,30.55
2023-02-13T20:01:22.412Z,26.63
2023-02-13T20:03:49.755Z,29.17
2023-02-13T20:06:18.165Z,29.80
2023-02-13T20:08:45.052Z,26.92
2023-02-13T20:11:12.925Z,26.70
2023-02-13T20:13:39.735Z,24.75
2023-02-13T20:16:07.488Z,25.77
2023-02-13T20:18:35.319Z,28.02
2023-02-13T20:21:05.945Z,25.42
2023-02-13T20:23:32.812Z,23.13
2023-02-13T20:26:03.745Z,24.73
2023-02-13T20:28:30.596Z,22.60
2023-02-13T20:30:58.401Z,26.40
2023-02-13T20:33:25.317Z,25.35
2023-02-13T20:35:51.879Z,23.17
2023-02-13T20:38:18.910Z,25.67
2023-02-13T20:40:46.438Z,22.63
2023-02-13T20:43:13.147Z,28.42
2023-02-13T20:45:42.064Z,25.35
2023-02-13T20:48:09.121Z,22.63
2023-02-13T20:50:36.086Z,28.02
2023-02-13T20:53:02.774Z,25.13
2023-02-13T20:55:29.640Z,24.52
2023-02-13T20:57:56.296Z,24.20
2023-02-13T21:00:23.415Z,27.27
2023-02-13T21:02:50.320Z,25.73
2023-02-13T21:05:16.920Z,24.65
2023-02-13T21:07:43.650Z,23.25
2023-02-13T21:10:10.764Z,23.95
2023-02-13T21:12:37.597Z,26.25
2023-02-13T21:15:04.130Z,27.10
2023-02-13T21:17:32.029Z,26.67
2023-02-13T21:19:58.641Z,22.60
2023-02-13T21:22:25.325Z,25.42
2023-02-13T21:24:52.350Z,22.70
2023-02-13T21:27:19.160Z,22.73
2023-02-13T21:29:45.765Z,22.77
2023-02-13T21:32:12.454Z,24.65
2023-02-13T21:34:39.348Z,24.52
2023-02-13T21:37:06.354Z,23.83
2023-02-13T21:39:33.710Z,22.70
2023-02-13T21:42:00.502Z,24.88
2023-02-13T21:44:27.297Z,27.98
2023-02-13T21:46:54.182Z,25.98
2023-02-13T21:49:20.872Z,25.23
2023-02-13T21:51:47.771Z,24.00
2023-02-13T21:54:14.398Z,22.02
2023-02-13T21:56:42.855Z,23.13
2023-02-13T21:59:10.876Z,25.40
2023-02-13T22:01:43.902Z,18.25
2023-02-13T22:04:10.780Z,26.23
2023-02-13T22:06:38.388Z,22.05
2023-02-13T22:09:15.310Z,25.00
2023-02-13T22:11:42.508Z,26.02
2023-02-13T22:14:12.169Z,24.45
2023-02-13T22:16:39.646Z,22.63
2023-02-13T22:19:06.906Z,23.55
2023-02-13T22:21:34.300Z,24.73
2023-02-13T22:24:01.288Z,21.45
2023-02-13T22:26:32.345Z,24.73
2023-02-13T22:29:01.131Z,25.80
2023-02-13T22:31:28.334Z,25.05
2023-02-13T22:34:05.278Z,23.02
2023-02-13T22:36:33.431Z,25.88
2023-02-13T22:39:00.249Z,24.25
2023-02-13T22:41:27.156Z,27.45
2023-02-13T22:43:53.866Z,27.15
2023-02-13T22:46:24.904Z,24.40
2023-02-13T22:48:52.593Z,28.17
2023-02-13T22:51:20.978Z,27.90
2023-02-13T22:53:48.512Z,24.88
2023-02-13T22:56:15.313Z,23.25
2023-02-13T22:58:42.105Z,22.10
2023-02-13T23:01:12.841Z,24.35
2023-02-13T23:03:39.565Z,28.23
2023-02-13T23:06:07.052Z,25.90
2023-02-13T23:08:33.863Z,26.77
2023-02-13T23:11:22.858Z,25.20
2023-02-13T23:13:49.666Z,23.13
2023-02-13T23:16:16.355Z,26.95
2023-02-13T23:18:43.968Z,25.33
2023-02-13T23:21:11.315Z,25.52
2023-02-13T23:23:41.257Z,27.63
2023-02-13T23:26:08.484Z,26.33
2023-02-13T23:28:35.624Z,26.23
2023-02-13T23:31:03.331Z,23.70
2023-02-13T23:33:30.352Z,27.65
2023-02-13T23:35:56.940Z,24.30
2023-02-13T23:38:23.976Z,24.25
2023-02-13T23:40:50.669Z,25.38
2023-02-13T23:43:17.637Z,28.65
2023-02-13T23:45:44.198Z,24.85
2023-02-13T23:48:12.861Z,29.08
2023-02-13T23:50:40.484Z,26.17
2023-02-13T23:53:07.456Z,26.02
2023-02-13T23:55:34.101Z,24.15
2023-02-13T23:58:00.904Z,25.95
